createdAt,value
2018-05-26T00:00:16.423Z,14.23
2018-05-26T00:02:43.939Z,13.10
2018-05-26T00:05:11.512Z,12.20
2018-05-26T00:07:39.042Z,14.07
2018-05-26T00:10:06.550Z,14.30
2018-05-26T00:12:34.126Z,12.13
2018-05-26T00:15:01.661Z,10.50
2018-05-26T00:17:29.579Z,13.50
2018-05-26T00:19:57.105Z,12.93
2018-05-26T00:22:24.650Z,12.60
2018-05-26T00:24:52.237Z,13.80
2018-05-26T00:27:19.742Z,12.83
2018-05-26T00:29:47.289Z,16.70
2018-05-26T00:32:15.024Z,13.00
2018-05-26T00:34:42.551Z,13.60
2018-05-26T00:37:10.075Z,11.93
2018-05-26T00:39:37.637Z,15.60
2018-05-26T00:42:06.406Z,16.90
2018-05-26T00:44:34.347Z,15.23
2018-05-26T00:47:01.976Z,12.53
2018-05-26T00:49:29.496Z,12.30
2018-05-26T00:51:57.079Z,11.80
2018-05-26T00:54:24.644Z,13.40
2018-05-26T00:56:52.191Z,15.17
2018-05-26T00:59:19.736Z,14.97
2018-05-26T01:01:47.287Z,14.60
2018-05-26T01:04:14.808Z,14.33
2018-05-26T01:06:42.370Z,14.57
2018-05-26T01:09:09.936Z,16.80
2018-05-26T01:11:37.940Z,16.73
2018-05-26T01:14:05.483Z,15.83
2018-05-26T01:16:33.031Z,16.27
2018-05-26T01:19:00.583Z,17.07
2018-05-26T01:21:28.147Z,16.57
2018-05-26T01:23:55.699Z,17.10
2018-05-26T01:26:23.237Z,23.00
2018-05-26T01:28:50.863Z,15.00
2018-05-26T01:31:18.391Z,21.03
2018-05-26T01:33:46.041Z,19.67
2018-05-26T01:36:13.571Z,16.13
2018-05-26T01:38:41.104Z,23.83
2018-05-26T01:41:08.663Z,18.47
2018-05-26T01:43:36.240Z,16.77
2018-05-26T01:46:04.359Z,16.33
2018-05-26T01:48:31.944Z,19.00
2018-05-26T01:50:59.526Z,19.90
2018-05-26T01:53:27.077Z,18.80
2018-05-26T01:55:54.643Z,22.50
2018-05-26T01:58:22.174Z,19.40
2018-05-26T02:00:50.032Z,20.60
2018-05-26T02:03:17.561Z,21.80
2018-05-26T02:05:45.104Z,18.90
2018-05-26T02:08:12.670Z,24.80
2018-05-26T02:10:40.199Z,23.60
2018-05-26T02:13:07.762Z,29.50
2018-05-26T02:15:35.306Z,24.37
2018-05-26T02:18:02.911Z,23.37
2018-05-26T02:20:30.533Z,23.40
2018-05-26T02:22:58.181Z,24.27
2018-05-26T02:25:25.823Z,27.40
2018-05-26T02:27:53.404Z,24.63
2018-05-26T02:30:20.966Z,27.67
2018-05-26T02:32:48.495Z,22.40
2018-05-26T02:35:16.061Z,29.80
2018-05-26T02:37:43.606Z,33.47
2018-05-26T02:40:11.344Z,30.67
2018-05-26T02:42:38.891Z,32.27
2018-05-26T02:45:06.444Z,29.67
2018-05-26T02:47:33.998Z,27.80
2018-05-26T02:50:01.611Z,25.23
2018-05-26T02:52:29.249Z,29.20
2018-05-26T02:54:56.798Z,34.53
2018-05-26T02:57:24.382Z,29.47
2018-05-26T02:59:51.904Z,37.67
2018-05-26T03:02:19.426Z,39.57
2018-05-26T03:04:52.501Z,40.93
2018-05-26T03:07:25.569Z,43.23
2018-05-26T03:09:58.835Z,39.70
2018-05-26T03:12:31.901Z,36.17
2018-05-26T03:14:59.108Z,44.57
2018-05-26T03:17:42.392Z,41.80
2018-05-26T03:20:09.951Z,39.90
2018-05-26T03:22:37.510Z,43.07
2018-05-26T03:25:05.085Z,42.43
2018-05-26T03:27:32.625Z,50.67
2018-05-26T03:30:00.223Z,47.10
2018-05-26T03:32:27.780Z,46.37
2018-05-26T03:34:55.447Z,44.10
2018-05-26T03:37:22.976Z,43.27
2018-05-26T03:39:50.513Z,39.73
2018-05-26T03:42:18.124Z,42.03
2018-05-26T03:44:45.669Z,37.90
2018-05-26T03:47:13.232Z,42.00
2018-05-26T03:49:40.771Z,38.13
2018-05-26T03:52:08.337Z,39.87
2018-05-26T03:58:03.101Z,38.00
2018-05-26T04:00:31.579Z,43.07
2018-05-26T04:02:59.714Z,33.33
2018-05-26T04:05:27.284Z,40.97
2018-05-26T04:07:54.845Z,43.30
2018-05-26T04:10:22.600Z,38.13
2018-05-26T04:12:50.932Z,40.80
2018-05-26T04:15:19.477Z,41.60
2018-05-26T04:17:47.788Z,42.87
2018-05-26T04:20:16.240Z,40.17
2018-05-26T04:22:43.912Z,46.10
2018-05-26T04:25:11.622Z,37.13
2018-05-26T04:27:39.192Z,36.30
2018-05-26T04:30:06.858Z,35.60
2018-05-26T04:32:34.598Z,31.23
2018-05-26T04:35:03.561Z,35.37
2018-05-26T04:37:31.127Z,31.97
2018-05-26T04:39:58.719Z,37.90
2018-05-26T04:42:27.183Z,32.80
2018-05-26T04:44:55.534Z,29.23
2018-05-26T04:47:23.115Z,30.30
2018-05-26T04:49:50.874Z,25.80
2018-05-26T04:52:18.417Z,31.30
2018-05-26T04:54:45.989Z,26.03
2018-05-26T04:57:14.333Z,26.10
2018-05-26T04:59:41.937Z,28.43
2018-05-26T05:02:09.677Z,29.33
2018-05-26T05:04:37.558Z,26.30
2018-05-26T05:07:05.144Z,26.47
2018-05-26T05:09:32.715Z,25.47
2018-05-26T05:12:00.388Z,22.70
2018-05-26T05:14:28.710Z,24.10
2018-05-26T05:16:57.057Z,26.93
2018-05-26T05:19:25.374Z,23.87
2018-05-26T05:21:52.962Z,23.13
2018-05-26T05:24:20.556Z,26.10
2018-05-26T05:26:48.231Z,22.23
2018-05-26T05:29:15.779Z,22.70
2018-05-26T05:31:44.116Z,26.23
2018-05-26T05:34:11.767Z,21.27
2018-05-26T05:36:40.145Z,25.20
2018-05-26T05:39:07.880Z,26.93
2018-05-26T05:41:36.254Z,20.73
2018-05-26T05:44:04.739Z,19.43
2018-05-26T05:46:33.056Z,20.97
2018-05-26T05:49:00.649Z,21.93
2018-05-26T05:51:28.266Z,21.33
2018-05-26T05:53:56.104Z,21.67
2018-05-26T05:56:24.651Z,23.70
2018-05-26T05:58:52.349Z,19.60
2018-05-26T06:01:20.717Z,19.10
2018-05-26T06:03:48.496Z,19.70
2018-05-26T06:06:16.845Z,17.63
2018-05-26T06:08:44.407Z,18.53
2018-05-26T06:11:12.079Z,17.83
2018-05-26T06:13:39.717Z,17.50
2018-05-26T06:16:07.292Z,17.40
2018-05-26T06:18:35.668Z,16.27
2018-05-26T06:21:06.250Z,18.50
2018-05-26T06:23:35.235Z,14.73
2018-05-26T06:26:05.978Z,15.33
2018-05-26T06:28:34.328Z,14.63
2018-05-26T06:31:02.326Z,14.37
2018-05-26T06:33:30.743Z,13.40
2018-05-26T06:35:58.338Z,14.27
2018-05-26T06:38:25.932Z,15.20
2018-05-26T06:40:54.890Z,21.93
2018-05-26T06:43:22.519Z,19.10
2018-05-26T06:45:50.090Z,21.60
2018-05-26T06:48:17.884Z,19.53
2018-05-26T06:50:46.275Z,19.13
2018-05-26T06:53:15.372Z,22.03
2018-05-26T06:55:43.024Z,18.40
2018-05-26T06:58:10.633Z,20.37
2018-05-26T07:00:39.939Z,21.63
2018-05-26T07:03:08.653Z,20.50
2018-05-26T07:05:36.591Z,20.60
2018-05-26T07:08:05.107Z,19.53
2018-05-26T07:10:34.733Z,18.10
2018-05-26T07:13:02.426Z,20.27
2018-05-26T07:15:30.992Z,22.33
2018-05-26T07:17:59.118Z,20.07
2018-05-26T07:20:26.732Z,16.70
2018-05-26T07:22:54.454Z,17.30
2018-05-26T07:25:22.154Z,19.83
2018-05-26T07:27:50.556Z,16.90
2018-05-26T07:30:18.925Z,19.20
2018-05-26T07:32:46.502Z,18.20
2018-05-26T07:35:14.106Z,20.27
2018-05-26T07:37:42.055Z,20.97
2018-05-26T07:40:09.669Z,20.80
2018-05-26T07:42:37.276Z,19.53
2018-05-26T07:45:04.937Z,19.50
2018-05-26T07:47:32.783Z,21.50
2018-05-26T07:50:00.597Z,18.90
2018-05-26T07:52:28.290Z,20.57
2018-05-26T07:54:55.863Z,20.07
2018-05-26T07:57:23.518Z,19.10
2018-05-26T07:59:51.195Z,16.63
2018-05-26T08:02:19.528Z,14.90
2018-05-26T08:04:47.109Z,15.03
2018-05-26T08:07:14.735Z,15.10
2018-05-26T08:09:43.087Z,15.63
2018-05-26T08:12:10.636Z,21.00
2018-05-26T08:14:38.303Z,19.10
2018-05-26T08:17:05.938Z,15.53
2018-05-26T08:19:35.045Z,14.00
2018-05-26T08:22:03.821Z,17.40
2018-05-26T08:24:33.006Z,15.17
2018-05-26T08:27:00.615Z,11.60
2018-05-26T08:29:28.206Z,12.67
2018-05-26T08:31:56.629Z,12.63
2018-05-26T08:34:24.253Z,14.77
2018-05-26T08:36:51.885Z,14.17
2018-05-26T08:39:20.241Z,12.37
2018-05-26T08:41:47.972Z,11.80
2018-05-26T08:44:15.652Z,14.10
2018-05-26T08:46:43.319Z,11.70
2018-05-26T08:49:11.693Z,11.27
2018-05-26T08:51:39.246Z,13.27
2018-05-26T08:54:06.799Z,11.10
2018-05-26T08:56:35.275Z,12.60
2018-05-26T08:59:03.005Z,10.83
2018-05-26T09:01:30.640Z,11.40
2018-05-26T09:03:58.464Z,10.27
2018-05-26T09:06:26.176Z,10.37
2018-05-26T09:08:53.790Z,9.83
2018-05-26T09:11:21.472Z,11.80
2018-05-26T09:13:49.049Z,10.60
2018-05-26T09:16:17.622Z,10.27
2018-05-26T09:18:45.230Z,11.03
2018-05-26T09:21:13.616Z,10.10
2018-05-26T09:23:41.189Z,8.30
2018-05-26T09:26:08.812Z,7.57
2018-05-26T09:28:37.054Z,7.73
2018-05-26T09:31:06.197Z,9.20
2018-05-26T09:33:33.956Z,6.83
2018-05-26T09:36:05.291Z,6.13
2018-05-26T09:38:33.078Z,7.47
2018-05-26T09:41:00.649Z,7.10
2018-05-26T09:43:28.348Z,8.60
2018-05-26T09:45:55.987Z,7.77
2018-05-26T09:48:23.579Z,6.13
2018-05-26T09:50:51.239Z,5.90
2018-05-26T09:53:19.657Z,5.80
2018-05-26T09:55:47.305Z,10.87
2018-05-26T09:58:15.686Z,6.33
2018-05-26T10:00:44.123Z,6.80
2018-05-26T10:03:11.725Z,6.20
2018-05-26T10:05:41.230Z,5.63
2018-05-26T10:08:08.899Z,5.20
2018-05-26T10:10:36.441Z,5.20
2018-05-26T10:13:04.117Z,5.07
2018-05-26T10:15:31.702Z,6.13
2018-05-26T10:18:00.097Z,5.03
2018-05-26T10:20:28.511Z,6.47
2018-05-26T10:22:56.135Z,4.27
2018-05-26T10:25:24.538Z,4.93
2018-05-26T10:27:52.925Z,5.67
2018-05-26T10:30:21.267Z,4.03
2018-05-26T10:32:49.005Z,5.23
2018-05-26T10:35:17.371Z,5.10
2018-05-26T10:37:45.249Z,4.80
2018-05-26T10:40:12.974Z,5.03
2018-05-26T10:42:41.503Z,6.87
2018-05-26T10:45:10.965Z,6.40
2018-05-26T10:47:38.960Z,5.27
2018-05-26T10:50:07.032Z,4.67
2018-05-26T10:52:35.399Z,4.93
2018-05-26T10:55:06.176Z,5.40
2018-05-26T10:57:34.650Z,4.37
2018-05-26T11:00:02.411Z,7.10
2018-05-26T11:02:30.832Z,6.17
2018-05-26T11:04:58.659Z,7.80
2018-05-26T11:07:26.259Z,5.77
2018-05-26T11:09:54.766Z,6.77
2018-05-26T11:12:23.313Z,6.17
2018-05-26T11:14:51.171Z,6.20
2018-05-26T11:17:19.615Z,7.13
2018-05-26T11:19:47.218Z,9.10
2018-05-26T11:22:14.839Z,8.07
2018-05-26T11:24:42.458Z,6.90
2018-05-26T11:27:10.029Z,7.20
2018-05-26T11:29:38.570Z,7.93
2018-05-26T11:32:06.270Z,7.93
2018-05-26T11:34:34.753Z,7.10
2018-05-26T11:37:02.412Z,9.73
2018-05-26T11:39:30.028Z,7.37
2018-05-26T11:41:58.336Z,7.80
2018-05-26T11:44:25.933Z,10.53
2018-05-26T11:46:53.518Z,12.70
2018-05-26T11:49:21.125Z,9.87
2018-05-26T11:51:48.913Z,11.93
2018-05-26T11:54:16.607Z,14.00
2018-05-26T11:56:44.257Z,11.53
2018-05-26T11:59:11.964Z,9.27
2018-05-26T12:01:39.727Z,6.77
2018-05-26T12:04:07.394Z,6.53
2018-05-26T12:06:35.902Z,8.50
2018-05-26T12:09:04.106Z,7.97
2018-05-26T12:11:33.481Z,8.73
2018-05-26T12:14:01.152Z,10.87
2018-05-26T12:16:28.857Z,8.30
2018-05-26T12:18:56.454Z,10.80
2018-05-26T12:21:24.134Z,7.67
2018-05-26T12:23:51.765Z,7.83
2018-05-26T12:26:19.313Z,7.47
2018-05-26T12:28:47.751Z,7.50
2018-05-26T12:31:15.286Z,7.17
2018-05-26T12:33:42.968Z,11.73
2018-05-26T12:36:11.262Z,7.73
2018-05-26T12:38:38.841Z,7.37
2018-05-26T12:41:08.002Z,6.30
2018-05-26T12:43:36.181Z,6.77
2018-05-26T12:46:04.234Z,5.83
2018-05-26T12:48:33.653Z,6.40
2018-05-26T12:51:03.170Z,4.20
2018-05-26T12:53:31.613Z,4.30
2018-05-26T12:55:59.242Z,4.67
2018-05-26T12:58:26.876Z,6.63
2018-05-26T13:00:55.514Z,3.90
2018-05-26T13:03:23.141Z,3.73
2018-05-26T13:05:51.514Z,4.03
2018-05-26T13:08:19.055Z,3.63
2018-05-26T13:10:46.863Z,9.07
2018-05-26T13:13:15.330Z,2.97
2018-05-26T13:15:42.902Z,5.40
2018-05-26T13:18:10.682Z,3.93
2018-05-26T13:20:39.813Z,3.57
2018-05-26T13:23:07.487Z,2.90
2018-05-26T13:25:35.077Z,5.93
2018-05-26T13:28:02.782Z,4.50
2018-05-26T13:30:31.704Z,3.00
2018-05-26T13:32:59.323Z,7.67
2018-05-26T13:35:26.955Z,3.90
2018-05-26T13:37:54.633Z,2.60
2018-05-26T13:40:22.390Z,3.60
2018-05-26T13:42:49.939Z,3.87
2018-05-26T13:45:17.527Z,3.97
2018-05-26T13:47:45.061Z,5.20
2018-05-26T13:50:13.452Z,3.20
2018-05-26T13:52:40.997Z,3.67
2018-05-26T13:55:09.491Z,4.10
2018-05-26T13:57:37.141Z,3.67
2018-05-26T14:00:05.065Z,4.40
2018-05-26T14:02:32.698Z,9.70
2018-05-26T14:05:01.278Z,5.17
2018-05-26T14:07:29.719Z,5.50
2018-05-26T14:09:57.402Z,3.40
2018-05-26T14:12:24.983Z,6.83
2018-05-26T14:14:52.578Z,3.73
2018-05-26T14:17:21.064Z,3.10
2018-05-26T14:19:48.623Z,3.73
2018-05-26T14:22:17.046Z,4.77
2018-05-26T14:24:44.713Z,2.80
2018-05-26T14:27:12.250Z,4.00
2018-05-26T14:29:40.759Z,4.43
2018-05-26T14:32:08.351Z,6.60
2018-05-26T14:34:35.991Z,3.20
2018-05-26T14:37:07.864Z,2.47
2018-05-26T14:39:35.728Z,3.83
2018-05-26T14:42:06.281Z,2.57
2018-05-26T14:44:33.841Z,4.80
2018-05-26T14:47:04.943Z,3.33
2018-05-26T14:49:33.373Z,2.97
2018-05-26T14:52:05.410Z,3.03
2018-05-26T14:54:33.865Z,3.47
2018-05-26T14:57:05.337Z,5.90
2018-05-26T14:59:32.880Z,3.67
2018-05-26T15:02:00.478Z,4.03
2018-05-26T15:04:28.964Z,4.03
2018-05-26T15:06:56.634Z,3.70
2018-05-26T15:09:25.028Z,4.07
2018-05-26T15:11:53.451Z,3.37
2018-05-26T15:14:21.075Z,3.53
2018-05-26T15:16:49.455Z,4.00
2018-05-26T15:19:17.801Z,3.37
2018-05-26T15:21:45.374Z,6.20
2018-05-26T15:24:13.135Z,5.43
2018-05-26T15:26:40.723Z,4.10
2018-05-26T15:29:08.267Z,3.53
2018-05-26T15:31:35.856Z,4.37
2018-05-26T15:34:03.442Z,3.93
2018-05-26T15:36:32.211Z,7.60
2018-05-26T15:38:59.882Z,5.17
2018-05-26T15:41:27.467Z,4.70
2018-05-26T15:43:55.807Z,7.23
2018-05-26T15:46:23.407Z,4.70
2018-05-26T15:48:50.987Z,5.37
2018-05-26T15:51:19.291Z,6.23
2018-05-26T15:53:46.909Z,4.07
2018-05-26T15:56:14.678Z,6.70
2018-05-26T15:58:42.658Z,3.70
2018-05-26T16:01:11.893Z,3.90
2018-05-26T16:03:40.344Z,3.73
2018-05-26T16:06:08.057Z,3.60
2018-05-26T16:08:35.690Z,5.37
2018-05-26T16:11:03.316Z,3.60
2018-05-26T16:13:30.879Z,4.90
2018-05-26T16:15:58.455Z,4.53
2018-05-26T16:18:25.997Z,5.20
2018-05-26T16:20:53.911Z,3.67
2018-05-26T16:23:21.484Z,5.27
2018-05-26T16:25:49.042Z,3.37
2018-05-26T16:28:16.631Z,5.30
2018-05-26T16:30:44.194Z,3.37
2018-05-26T16:33:11.968Z,5.20
2018-05-26T16:35:40.404Z,3.40
2018-05-26T16:38:08.038Z,3.40
2018-05-26T16:40:36.352Z,4.37
2018-05-26T16:43:03.964Z,5.80
2018-05-26T16:45:31.571Z,5.50
2018-05-26T16:47:59.122Z,4.47
2018-05-26T16:50:27.497Z,3.97
2018-05-26T16:52:55.861Z,4.20
2018-05-26T16:55:23.456Z,4.07
2018-05-26T16:57:51.768Z,5.77
2018-05-26T17:00:19.866Z,5.93
2018-05-26T17:02:47.542Z,5.53
2018-05-26T17:05:15.171Z,4.40
2018-05-26T17:07:42.745Z,5.13
2018-05-26T17:10:10.428Z,5.77
2018-05-26T17:12:38.688Z,5.67
2018-05-26T17:15:06.280Z,5.40
2018-05-26T17:17:33.935Z,7.30
2018-05-26T17:20:06.382Z,5.80
2018-05-26T17:22:34.801Z,5.23
2018-05-26T17:25:07.524Z,4.73
2018-05-26T17:27:35.899Z,8.23
2018-05-26T17:30:07.593Z,5.50
2018-05-26T17:32:35.213Z,5.30
2018-05-26T17:35:04.483Z,5.07
2018-05-26T17:37:32.954Z,5.97
2018-05-26T17:40:00.544Z,4.43
2018-05-26T17:42:28.101Z,6.40
2018-05-26T17:44:56.463Z,9.80
2018-05-26T17:47:24.097Z,6.20
2018-05-26T17:49:52.508Z,5.20
2018-05-26T17:52:20.072Z,6.43
2018-05-26T17:54:47.825Z,5.43
2018-05-26T17:57:15.542Z,5.10
2018-05-26T17:59:43.962Z,8.17
2018-05-26T18:02:11.537Z,6.30
2018-05-26T18:04:39.088Z,7.90
2018-05-26T18:07:06.814Z,5.50
2018-05-26T18:09:35.185Z,5.80
2018-05-26T18:12:05.070Z,7.30
2018-05-26T18:14:33.280Z,7.20
2018-05-26T18:17:00.882Z,7.23
2018-05-26T18:19:29.272Z,9.67
2018-05-26T18:21:56.875Z,8.87
2018-05-26T18:24:24.480Z,7.43
2018-05-26T18:26:52.421Z,8.47
2018-05-26T18:29:19.982Z,6.83
2018-05-26T18:31:47.594Z,9.10
2018-05-26T18:34:15.950Z,13.43
2018-05-26T18:36:43.547Z,11.07
2018-05-26T18:39:11.895Z,9.50
2018-05-26T18:41:39.875Z,9.03
2018-05-26T18:44:07.607Z,7.87
2018-05-26T18:46:35.146Z,7.23
2018-05-26T18:49:03.494Z,8.73
2018-05-26T18:51:31.066Z,6.90
2018-05-26T18:53:58.848Z,9.73
2018-05-26T18:56:26.509Z,8.27
2018-05-26T18:58:54.066Z,9.10
2018-05-26T19:01:21.686Z,10.20
2018-05-26T19:03:49.290Z,10.63
2018-05-26T19:06:16.962Z,9.53
2018-05-26T19:08:44.586Z,12.20
2018-05-26T19:11:12.175Z,13.20
2018-05-26T19:13:39.746Z,10.47
2018-05-26T19:16:08.299Z,11.13
2018-05-26T19:18:35.878Z,9.80
2018-05-26T19:21:03.731Z,9.60
2018-05-26T19:23:31.456Z,15.33
2018-05-26T19:25:59.788Z,12.23
2018-05-26T19:28:27.820Z,8.47
2018-05-26T19:30:55.658Z,11.60
2018-05-26T19:33:23.239Z,15.83
2018-05-26T19:35:51.639Z,9.57
2018-05-26T19:38:19.264Z,10.07
2018-05-26T19:40:46.905Z,15.80
2018-05-26T19:43:15.279Z,16.00
2018-05-26T19:45:42.909Z,12.63
2018-05-26T19:48:10.500Z,9.70
2018-05-26T19:50:38.254Z,15.27
2018-05-26T19:53:05.847Z,13.60
2018-05-26T19:55:33.455Z,9.60
2018-05-26T19:58:01.193Z,10.83
2018-05-26T20:00:29.511Z,10.23
2018-05-26T20:02:58.131Z,10.43
2018-05-26T20:05:26.488Z,13.00
2018-05-26T20:07:54.194Z,16.07
2018-05-26T20:10:21.829Z,16.43
2018-05-26T20:12:49.527Z,13.40
2018-05-26T20:15:17.140Z,12.63
2018-05-26T20:17:44.943Z,15.90
2018-05-26T20:20:12.540Z,15.67
2018-05-26T20:22:40.148Z,13.37
2018-05-26T20:25:07.782Z,12.63
2018-05-26T20:27:35.426Z,14.47
2018-05-26T20:30:03.291Z,18.33
2018-05-26T20:32:30.883Z,17.00
2018-05-26T20:34:58.565Z,14.80
2018-05-26T20:37:26.955Z,12.93
2018-05-26T20:39:55.418Z,15.53
2018-05-26T20:42:23.089Z,18.30
2018-05-26T20:44:50.723Z,21.60
2018-05-26T20:47:18.393Z,17.47
2018-05-26T20:49:46.001Z,15.50
2018-05-26T20:52:13.672Z,12.93
2018-05-26T20:54:41.356Z,17.77
2018-05-26T20:57:09.697Z,18.13
2018-05-26T20:59:37.381Z,17.80
2018-05-26T21:02:05.166Z,20.07
2018-05-26T21:04:34.254Z,22.87
2018-05-26T21:07:04.141Z,16.53
2018-05-26T21:09:31.842Z,18.80
2018-05-26T21:11:59.595Z,18.40
2018-05-26T21:14:27.794Z,17.17
2018-05-26T21:16:55.423Z,18.80
2018-05-26T21:19:23.160Z,16.00
2018-05-26T21:21:51.533Z,18.43
2018-05-26T21:24:19.960Z,20.37
2018-05-26T21:26:47.603Z,13.80
2018-05-26T21:29:15.194Z,18.53
2018-05-26T21:31:42.741Z,18.20
2018-05-26T21:34:10.370Z,23.50
2018-05-26T21:36:38.708Z,17.20
2018-05-26T21:39:06.365Z,17.73
2018-05-26T21:41:34.232Z,21.57
2018-05-26T21:44:01.822Z,22.83
2018-05-26T21:46:29.372Z,15.60
2018-05-26T21:48:56.920Z,20.90
2018-05-26T21:51:24.525Z,19.80
2018-05-26T21:53:52.169Z,18.90
2018-05-26T21:56:20.250Z,18.00
2018-05-26T21:58:47.800Z,20.03
2018-05-26T22:01:15.399Z,18.63
2018-05-26T22:03:42.975Z,22.57
2018-05-26T22:06:10.645Z,17.67
2018-05-26T22:08:38.980Z,16.70
2018-05-26T22:11:06.532Z,21.30
2018-05-26T22:13:34.910Z,21.70
2018-05-26T22:16:03.213Z,17.43
2018-05-26T22:18:30.919Z,20.20
2018-05-26T22:20:58.594Z,17.70
2018-05-26T22:23:26.225Z,19.83
2018-05-26T22:25:53.995Z,18.80
2018-05-26T22:28:21.666Z,20.27
2018-05-26T22:30:49.328Z,22.63
2018-05-26T22:33:17.937Z,21.77
2018-05-26T22:35:45.512Z,23.33
2018-05-26T22:38:13.049Z,20.73
2018-05-26T22:40:40.712Z,20.33
2018-05-26T22:43:08.269Z,20.50
2018-05-26T22:45:36.621Z,18.57
2018-05-26T22:48:04.742Z,18.43
2018-05-26T22:50:33.310Z,19.90
2018-05-26T22:53:02.913Z,23.40
2018-05-26T22:55:31.389Z,20.33
2018-05-26T22:57:58.978Z,21.90
2018-05-26T23:00:27.330Z,25.30
2018-05-26T23:02:54.924Z,20.73
2018-05-26T23:05:23.277Z,21.43
2018-05-26T23:07:50.881Z,20.83
2018-05-26T23:10:19.201Z,25.30
2018-05-26T23:12:46.766Z,19.80
2018-05-26T23:15:14.322Z,25.67
2018-05-26T23:17:42.004Z,19.63
2018-05-26T23:20:09.633Z,26.07
2018-05-26T23:22:37.965Z,26.00
2018-05-26T23:25:05.535Z,20.73
2018-05-26T23:27:33.888Z,25.53
2018-05-26T23:30:01.454Z,20.90
2018-05-26T23:32:29.115Z,25.27
2018-05-26T23:34:56.741Z,25.60
2018-05-26T23:37:24.357Z,21.97
2018-05-26T23:39:51.952Z,22.27
2018-05-26T23:42:19.533Z,21.73
2018-05-26T23:44:47.210Z,22.53
2018-05-26T23:47:14.778Z,20.03
2018-05-26T23:49:42.351Z,19.73
2018-05-26T23:52:10.781Z,20.47
2018-05-26T23:54:38.329Z,21.50
2018-05-26T23:57:06.733Z,24.80
2018-05-26T23:59:34.281Z,22.23
